Manea, United Kingdom
Current Conditions -  °F | °C
As of 3:58 AM on Wednesday 22 Oct 2014 (Local Time) from EGUN Reporting Station
Few Clouds Few Clouds  
Wind Chill: 35°   Ceiling: Unl
Heat Index: 43°   Visibility: 6mi
Dew Point: 43°   Wind: 18mph
Humidity: 99%   Direction: 280°W
Pressure: 30.13"   Gusts: NA
Location:  52.48°N, 0.18°E
Report Text: EGUN 220258Z AUTO 28016KT 9999 FEW060 06/06 A3013 RMK AO2 SLP206 T00610060 51013 $
Loading
Personal Weather Stations






























Interactive Weather Map
Tropical Storm Tracking
New forecast layout! Learn more

10-Day Weather Forecast

Advertisements
Track Severe Weather on mobile